Time;durP1;ratioP1;P1;durP2;ratioP2;P2;SDS_P1;SDS_P2;PMS_P1;PMS_P2;Temp;Humidity;BMP_temperature;BMP_pressure;BME280_temperature;BME280_humidity;BME280_pressure;Samples;Min_cycle;Max_cycle;Signal;HPM_P1;HPM_P2
2023/03/05 00:02:08;;;;;;;9.32;1.73;;;6.10;86.80;;;;;;5079875;28;20082;-65
2023/03/05 00:04:34;;;;;;;13.73;2.83;;;6.10;86.30;;;;;;5080970;28;20047;-65
2023/03/05 00:07:00;;;;;;;10.25;1.63;;;6.10;85.80;;;;;;5077137;28;20024;-66
2023/03/05 00:09:26;;;;;;;9.50;1.48;;;6.10;85.90;;;;;;5071120;28;20056;-66
2023/03/05 00:11:52;;;;;;;8.45;1.35;;;6.00;85.90;;;;;;5073515;28;20189;-66
2023/03/05 00:14:17;;;;;;;9.30;1.67;;;6.00;86.10;;;;;;5070015;28;20035;-66
2023/03/05 00:16:43;;;;;;;13.15;1.67;;;6.00;85.80;;;;;;5071002;28;20496;-65
2023/03/05 00:19:09;;;;;;;12.30;1.73;;;5.90;84.10;;;;;;5070535;28;20752;-65
2023/03/05 00:21:38;;;;;;;9.00;1.73;;;5.80;84.40;;;;;;5079300;28;20567;-65
2023/03/05 00:24:10;;;;;;;5.30;1.30;;;5.80;84.60;;;;;;5076234;28;20115;-65
2023/03/05 00:26:37;;;;;;;7.53;1.10;;;5.80;84.60;;;;;;5079193;28;20109;-66
2023/03/05 00:29:04;;;;;;;7.60;2.03;;;5.80;84.50;;;;;;5078572;28;20032;-66
2023/03/05 00:31:32;;;;;;;7.18;1.27;;;5.70;84.50;;;;;;5076791;28;20094;-66
2023/03/05 00:34:02;;;;;;;7.70;1.42;;;5.70;84.60;;;;;;5077526;28;20578;-66
2023/03/05 00:36:28;;;;;;;7.93;1.50;;;5.70;83.90;;;;;;5071717;28;20036;-66
2023/03/05 00:38:54;;;;;;;6.50;1.35;;;5.70;84.00;;;;;;5071732;28;20025;-63
2023/03/05 00:41:21;;;;;;;5.95;1.40;;;5.70;83.70;;;;;;5073132;28;20048;-61
2023/03/05 00:43:47;;;;;;;10.48;2.08;;;5.70;84.00;;;;;;5075970;28;20049;-63
2023/03/05 00:46:13;;;;;;;5.10;1.50;;;5.70;83.70;;;;;;5067569;28;20134;-63
2023/03/05 00:48:39;;;;;;;12.02;1.25;;;5.70;83.40;;;;;;5078429;28;20051;-63
2023/03/05 00:51:05;;;;;;;9.48;1.90;;;5.70;82.70;;;;;;5074489;28;20202;-63
2023/03/05 00:53:31;;;;;;;7.55;1.88;;;5.70;82.80;;;;;;5077296;28;20048;-63
2023/03/05 00:55:58;;;;;;;6.35;1.35;;;5.60;82.20;;;;;;5074761;28;20025;-64
2023/03/05 00:58:24;;;;;;;7.30;1.65;;;5.60;82.40;;;;;;5075450;28;20044;-63
2023/03/05 01:00:50;;;;;;;12.30;1.17;;;5.60;81.20;;;;;;5075032;28;20545;-63
2023/03/05 01:03:19;;;;;;;16.58;1.30;;;5.50;81.40;;;;;;5066277;28;20024;-63
2023/03/05 01:05:45;;;;;;;4.18;0.98;;;5.50;81.70;;;;;;5076030;28;20042;-63
2023/03/05 01:08:10;;;;;;;8.20;1.55;;;5.50;81.10;;;;;;5063084;28;20028;-64
2023/03/05 01:10:36;;;;;;;5.13;1.30;;;5.40;81.00;;;;;;5080305;28;20019;-63
2023/03/05 01:13:02;;;;;;;11.70;1.10;;;5.40;80.60;;;;;;5071219;28;20036;-64
2023/03/05 01:15:28;;;;;;;8.85;1.75;;;5.30;80.20;;;;;;5075032;28;20123;-64
2023/03/05 01:17:54;;;;;;;11.93;1.48;;;5.30;80.00;;;;;;5070379;28;20035;-63
2023/03/05 01:20:21;;;;;;;6.47;1.20;;;5.20;80.70;;;;;;5083285;28;20032;-66
2023/03/05 01:22:47;;;;;;;4.97;1.15;;;5.10;80.60;;;;;;5080089;28;20077;-65
2023/03/05 01:25:14;;;;;;;2.65;0.93;;;5.00;80.10;;;;;;5087733;28;20039;-64
2023/03/05 01:27:40;;;;;;;4.50;0.70;;;5.00;80.60;;;;;;5080464;28;20028;-64
2023/03/05 01:30:09;;;;;;;9.27;1.40;;;4.90;80.50;;;;;;5075508;28;20055;-65
2023/03/05 01:32:35;;;;;;;4.47;0.93;;;4.90;80.20;;;;;;5068202;28;20560;-63
2023/03/05 01:35:02;;;;;;;5.82;1.23;;;4.90;80.60;;;;;;5081891;28;20028;-65
2023/03/05 01:37:28;;;;;;;7.55;1.83;;;4.90;80.90;;;;;;5078460;28;20042;-65
2023/03/05 01:39:54;;;;;;;6.20;1.00;;;4.90;81.20;;;;;;5078964;28;20166;-65
2023/03/05 01:42:20;;;;;;;8.05;1.27;;;4.80;80.40;;;;;;5071527;28;20748;-62
2023/03/05 01:45:08;;;;;;;3.03;1.00;;;4.80;80.20;;;;;;5084822;28;20027;-61
2023/03/05 01:47:34;;;;;;;4.03;0.98;;;4.80;80.30;;;;;;5071382;28;20028;-62
2023/03/05 01:50:00;;;;;;;2.78;0.88;;;4.70;80.10;;;;;;5074538;28;20080;-62
2023/03/05 01:52:28;;;;;;;4.18;1.00;;;4.70;80.20;;;;;;5070354;28;20090;-65
2023/03/05 01:55:00;;;;;;;6.03;1.23;;;4.70;80.50;;;;;;5083258;28;20023;-64
2023/03/05 01:57:36;;;;;;;3.97;0.90;;;4.70;80.50;;;;;;5076822;28;20028;-64
2023/03/05 02:00:10;;;;;;;6.40;1.10;;;4.70;80.30;;;;;;5078515;28;20028;-64
2023/03/05 02:02:40;;;;;;;7.07;1.35;;;4.70;80.20;;;;;;5075001;28;20048;-64
2023/03/05 02:05:10;;;;;;;7.40;2.15;;;4.70;80.00;;;;;;5072810;28;20093;-64
2023/03/05 02:07:38;;;;;;;8.07;1.33;;;4.70;80.30;;;;;;5071430;28;20736;-62
2023/03/05 02:10:18;;;;;;;9.50;1.27;;;4.80;81.00;;;;;;5075852;28;20051;-62
2023/03/05 02:12:45;;;;;;;7.57;1.20;;;4.80;79.60;;;;;;5064452;28;20043;-61
2023/03/05 02:15:11;;;;;;;5.47;1.10;;;4.70;79.10;;;;;;5073826;28;20147;-61
2023/03/05 02:17:37;;;;;;;6.65;1.90;;;4.70;78.90;;;;;;5077964;28;20878;-62
2023/03/05 02:20:14;;;;;;;9.27;1.00;;;4.70;79.70;;;;;;5077130;28;20032;-61
2023/03/05 02:22:40;;;;;;;5.25;1.00;;;4.70;80.20;;;;;;5065357;28;20036;-66
2023/03/05 02:25:21;;;;;;;6.35;1.75;;;4.70;79.90;;;;;;5074282;28;20074;-64
2023/03/05 02:27:58;;;;;;;3.25;0.90;;;4.70;79.80;;;;;;5059180;28;20492;-66
2023/03/05 02:30:24;;;;;;;3.55;0.98;;;4.70;80.00;;;;;;5080418;28;20035;-66
2023/03/05 02:32:50;;;;;;;6.97;1.00;;;4.70;79.40;;;;;;5074270;28;20099;-66
2023/03/05 02:35:17;;;;;;;4.78;1.20;;;4.70;80.20;;;;;;5073942;28;20042;-66
2023/03/05 02:37:43;;;;;;;5.95;1.08;;;4.60;80.40;;;;;;5076413;28;20024;-68
2023/03/05 02:40:10;;;;;;;9.10;1.20;;;4.70;80.70;;;;;;5072821;28;20028;-64
2023/03/05 02:42:37;;;;;;;8.35;1.33;;;4.70;80.60;;;;;;5068840;28;20031;-62
2023/03/05 02:45:04;;;;;;;5.72;1.13;;;4.70;80.70;;;;;;5068230;28;20068;-62
2023/03/05 02:47:30;;;;;;;3.17;0.90;;;4.70;80.80;;;;;;5062133;28;20020;-62
2023/03/05 02:49:57;;;;;;;8.82;1.05;;;4.70;80.90;;;;;;5082679;28;20032;-62
2023/03/05 02:52:22;;;;;;;20.85;1.67;;;4.80;80.90;;;;;;5072296;28;20036;-62
2023/03/05 02:54:50;;;;;;;3.08;0.65;;;4.80;81.40;;;;;;5074287;28;20028;-63
2023/03/05 02:57:16;;;;;;;6.10;1.17;;;4.80;80.90;;;;;;5062150;28;20789;-63
2023/03/05 02:59:42;;;;;;;6.25;1.10;;;4.80;81.30;;;;;;5071437;28;20058;-63
2023/03/05 03:02:08;;;;;;;5.07;0.88;;;4.70;81.40;;;;;;5071873;28;20498;-64
2023/03/05 03:04:33;;;;;;;1.98;0.80;;;4.70;81.80;;;;;;5075653;28;20068;-63
2023/03/05 03:06:59;;;;;;;5.85;1.23;;;4.70;81.40;;;;;;5074233;28;20055;-63
2023/03/05 03:09:26;;;;;;;6.40;2.28;;;4.80;82.00;;;;;;5069221;28;20491;-63
2023/03/05 03:11:52;;;;;;;2.92;0.95;;;4.80;82.00;;;;;;5068947;28;20030;-63
2023/03/05 03:14:18;;;;;;;6.13;1.30;;;4.80;82.10;;;;;;5075486;28;20024;-63
2023/03/05 03:16:44;;;;;;;2.13;0.77;;;4.80;81.50;;;;;;5069886;28;20081;-63
2023/03/05 03:19:10;;;;;;;3.65;0.60;;;4.70;81.60;;;;;;5072049;28;20036;-63
2023/03/05 03:21:36;;;;;;;3.30;0.70;;;4.60;81.30;;;;;;5075401;28;20048;-63
2023/03/05 03:24:02;;;;;;;4.68;1.15;;;4.60;81.80;;;;;;5074470;28;20134;-62
2023/03/05 03:26:29;;;;;;;2.22;0.65;;;4.60;82.40;;;;;;5074384;28;20036;-63
2023/03/05 03:28:54;;;;;;;2.10;0.98;;;4.40;82.40;;;;;;5075098;28;20067;-63
2023/03/05 03:31:20;;;;;;;3.75;0.85;;;4.40;82.60;;;;;;5080346;28;20127;-63
2023/03/05 03:33:46;;;;;;;6.10;1.02;;;4.40;82.90;;;;;;5077834;28;20036;-62
2023/03/05 03:36:12;;;;;;;2.95;1.00;;;4.30;82.90;;;;;;5068413;28;20028;-62
2023/03/05 03:38:38;;;;;;;7.63;0.82;;;4.30;83.30;;;;;;5081510;28;20028;-63
2023/03/05 03:41:07;;;;;;;7.38;0.80;;;4.30;84.00;;;;;;5084283;28;20031;-63
2023/03/05 03:43:35;;;;;;;3.53;0.90;;;4.20;84.40;;;;;;5079396;28;20047;-63
2023/03/05 03:46:04;;;;;;;4.78;0.80;;;4.20;84.60;;;;;;5066621;28;20102;-63
2023/03/05 03:48:30;;;;;;;3.03;0.80;;;4.10;85.10;;;;;;5071006;28;20024;-63
2023/03/05 03:50:56;;;;;;;3.60;0.60;;;4.10;85.70;;;;;;5076570;28;20027;-63
2023/03/05 03:53:22;;;;;;;8.30;0.80;;;4.10;86.10;;;;;;5082385;28;20100;-63
2023/03/05 03:55:47;;;;;;;4.80;0.95;;;4.20;86.30;;;;;;5078897;28;20038;-63
2023/03/05 03:58:13;;;;;;;4.20;1.25;;;4.20;86.70;;;;;;5077175;28;20109;-63
2023/03/05 04:00:40;;;;;;;2.53;0.82;;;4.20;87.00;;;;;;5073534;28;20477;-63
2023/03/05 04:03:06;;;;;;;6.15;0.77;;;4.20;87.10;;;;;;5072225;28;20038;-63
2023/03/05 04:05:32;;;;;;;3.03;1.05;;;4.10;87.20;;;;;;5074784;28;20043;-63
2023/03/05 04:07:58;;;;;;;4.60;1.02;;;4.10;87.00;;;;;;5078090;28;20085;-63
2023/03/05 04:10:25;;;;;;;5.93;0.70;;;4.00;87.20;;;;;;5081191;28;20107;-63
2023/03/05 04:12:51;;;;;;;5.85;0.75;;;4.00;88.20;;;;;;5078403;28;20020;-63
2023/03/05 04:15:17;;;;;;;4.47;1.00;;;4.00;88.90;;;;;;5073132;28;20040;-63
2023/03/05 04:17:43;;;;;;;2.78;0.75;;;3.90;88.70;;;;;;5065500;28;20139;-63
2023/03/05 04:20:09;;;;;;;6.47;0.95;;;3.90;89.10;;;;;;5077459;28;20032;-63
2023/03/05 04:22:36;;;;;;;6.00;0.80;;;3.90;89.80;;;;;;5076748;28;20039;-63
2023/03/05 04:25:07;;;;;;;6.90;1.45;;;4.00;89.70;;;;;;5072940;28;20181;-63
2023/03/05 04:27:33;;;;;;;4.40;1.05;;;4.00;89.80;;;;;;5073143;28;20041;-63
2023/03/05 04:29:59;;;;;;;3.50;0.90;;;4.00;89.50;;;;;;5080128;28;20019;-63
2023/03/05 04:32:28;;;;;;;9.32;1.15;;;4.00;89.90;;;;;;5071367;28;20467;-63
2023/03/05 04:34:57;;;;;;;3.25;0.82;;;4.10;89.80;;;;;;5076288;28;20098;-63
2023/03/05 04:37:24;;;;;;;2.70;0.90;;;4.00;89.50;;;;;;5076407;28;20071;-63
2023/03/05 04:39:51;;;;;;;2.78;0.90;;;4.00;89.70;;;;;;5073766;28;20025;-63
2023/03/05 04:42:18;;;;;;;6.10;0.90;;;4.10;89.70;;;;;;5063389;28;20454;-63
2023/03/05 04:44:48;;;;;;;13.07;1.13;;;4.10;89.60;;;;;;5075727;28;20032;-63
2023/03/05 04:47:14;;;;;;;8.00;0.77;;;4.20;89.80;;;;;;5079204;28;20097;-63
2023/03/05 04:49:40;;;;;;;5.97;1.33;;;4.20;89.90;;;;;;5072381;28;20073;-63
2023/03/05 04:52:06;;;;;;;8.52;1.42;;;4.10;89.60;;;;;;5079056;28;20024;-63
2023/03/05 04:54:32;;;;;;;8.10;1.00;;;4.20;90.00;;;;;;5078101;28;20027;-63
2023/03/05 04:56:58;;;;;;;5.35;0.90;;;4.20;90.00;;;;;;5073907;28;20024;-63
2023/03/05 04:59:23;;;;;;;5.50;1.00;;;4.20;90.00;;;;;;5071779;28;20735;-63
2023/03/05 05:01:49;;;;;;;5.38;0.70;;;4.10;90.30;;;;;;5078511;28;20036;-63
2023/03/05 05:04:15;;;;;;;4.45;0.88;;;4.20;90.30;;;;;;5073416;28;20039;-63
2023/03/05 05:06:41;;;;;;;5.30;1.05;;;4.30;90.50;;;;;;5079204;28;20024;-63
2023/03/05 05:09:06;;;;;;;5.32;1.00;;;4.20;90.50;;;;;;5077308;28;20024;-63
2023/03/05 05:11:32;;;;;;;4.68;0.80;;;4.30;90.60;;;;;;5069116;28;20426;-63
2023/03/05 05:13:58;;;;;;;1.17;0.80;;;4.30;90.60;;;;;;5069619;28;20066;-63
2023/03/05 05:16:24;;;;;;;4.90;0.88;;;4.30;90.80;;;;;;5077880;28;20043;-63
2023/03/05 05:18:49;;;;;;;3.25;0.98;;;4.30;90.80;;;;;;5072832;28;20035;-63
2023/03/05 05:21:17;;;;;;;3.22;1.08;;;4.30;90.70;;;;;;5078061;28;20081;-63
2023/03/05 05:23:43;;;;;;;7.70;0.95;;;4.30;90.90;;;;;;5080150;28;20047;-63
2023/03/05 05:26:13;;;;;;;6.45;1.00;;;4.30;91.00;;;;;;5079309;28;20558;-63
2023/03/05 05:28:41;;;;;;;8.80;1.20;;;4.40;90.80;;;;;;5069729;28;20817;-63
2023/03/05 05:31:09;;;;;;;5.07;1.10;;;4.30;90.90;;;;;;5060768;28;20143;-63
2023/03/05 05:33:35;;;;;;;3.22;0.85;;;4.40;91.00;;;;;;5078404;28;20303;-63
2023/03/05 05:36:03;;;;;;;5.05;1.38;;;4.40;91.00;;;;;;5073822;28;20029;-62
2023/03/05 05:38:29;;;;;;;7.32;1.15;;;4.40;90.90;;;;;;5070012;28;20040;-63
2023/03/05 05:41:03;;;;;;;7.68;1.00;;;4.40;90.80;;;;;;5077572;28;20032;-63
2023/03/05 05:43:29;;;;;;;3.15;0.73;;;4.40;90.90;;;;;;5074088;28;20433;-63
2023/03/05 05:46:02;;;;;;;5.78;0.88;;;4.50;90.80;;;;;;5082093;28;20031;-63
2023/03/05 05:48:29;;;;;;;6.70;1.00;;;4.40;90.90;;;;;;5072498;28;20047;-64
2023/03/05 05:50:55;;;;;;;4.03;0.80;;;4.40;90.60;;;;;;5081935;28;20028;-63
2023/03/05 05:53:22;;;;;;;5.07;0.90;;;4.40;90.60;;;;;;5068437;28;20060;-63
2023/03/05 05:55:48;;;;;;;4.65;0.93;;;4.40;90.80;;;;;;5085003;28;20086;-63
2023/03/05 05:58:13;;;;;;;2.50;0.60;;;4.40;90.90;;;;;;5083496;28;20590;-63
2023/03/05 06:00:39;;;;;;;5.80;0.68;;;4.50;90.90;;;;;;5075051;28;20023;-63
2023/03/05 06:03:06;;;;;;;6.25;0.90;;;4.50;90.80;;;;;;5074495;28;20543;-63
2023/03/05 06:05:32;;;;;;;5.90;0.75;;;4.50;90.90;;;;;;5075802;28;20028;-63
2023/03/05 06:07:58;;;;;;;2.00;0.70;;;4.60;90.90;;;;;;5073744;28;20021;-63
2023/03/05 06:10:24;;;;;;;2.72;0.90;;;4.60;91.00;;;;;;5073791;28;20093;-63
2023/03/05 06:12:50;;;;;;;5.20;0.80;;;4.60;90.90;;;;;;5070964;28;20052;-63
2023/03/05 06:15:17;;;;;;;3.63;0.93;;;4.60;90.90;;;;;;5070897;28;20036;-62
2023/03/05 06:17:43;;;;;;;2.63;0.82;;;4.60;91.00;;;;;;5069045;28;20032;-62
2023/03/05 06:20:10;;;;;;;2.67;0.88;;;4.70;91.00;;;;;;5073031;28;20035;-62
2023/03/05 06:22:37;;;;;;;7.65;1.45;;;4.70;91.00;;;;;;5069873;28;20034;-62
2023/03/05 06:25:04;;;;;;;3.92;1.05;;;4.70;91.10;;;;;;5071423;28;20801;-62
2023/03/05 06:27:29;;;;;;;5.88;0.90;;;4.80;91.10;;;;;;5073070;28;20507;-62
2023/03/05 06:29:55;;;;;;;3.97;0.90;;;4.70;91.10;;;;;;5067108;28;20033;-62
2023/03/05 06:32:21;;;;;;;2.28;0.80;;;4.80;91.00;;;;;;5069510;28;20028;-62
2023/03/05 06:34:48;;;;;;;4.07;0.60;;;4.80;91.00;;;;;;5069308;28;20024;-62
2023/03/05 06:37:13;;;;;;;2.33;0.77;;;4.80;90.90;;;;;;5061174;28;20522;-62
2023/03/05 06:39:39;;;;;;;6.35;1.13;;;4.80;90.90;;;;;;5072881;28;20119;-62
2023/03/05 06:42:05;;;;;;;3.53;0.55;;;4.80;90.90;;;;;;5075701;28;20024;-62
2023/03/05 06:44:31;;;;;;;2.08;0.60;;;4.80;90.80;;;;;;5076690;28;20043;-62
2023/03/05 06:46:56;;;;;;;2.22;0.60;;;4.90;90.60;;;;;;5068299;28;20028;-62
2023/03/05 06:49:22;;;;;;;3.83;0.50;;;4.90;90.60;;;;;;5069815;28;20490;-62
2023/03/05 06:51:48;;;;;;;3.50;0.90;;;4.90;90.40;;;;;;5067799;28;20415;-62
2023/03/05 06:54:15;;;;;;;4.22;0.68;;;5.00;90.50;;;;;;5070456;28;20479;-62
2023/03/05 06:56:43;;;;;;;2.30;0.63;;;5.00;90.00;;;;;;5072837;28;20158;-62
2023/03/05 06:59:11;;;;;;;5.07;0.60;;;5.10;90.20;;;;;;5074507;28;20031;-62
2023/03/05 07:01:37;;;;;;;4.07;0.90;;;5.10;89.80;;;;;;5077330;28;20559;-62
2023/03/05 07:04:04;;;;;;;3.35;0.95;;;5.20;89.80;;;;;;5066282;28;20035;-62
2023/03/05 07:06:37;;;;;;;7.50;0.77;;;5.20;89.60;;;;;;5063736;28;20040;-62
2023/03/05 07:09:04;;;;;;;1.27;0.45;;;5.30;88.80;;;;;;5076177;28;20055;-62
2023/03/05 07:11:30;;;;;;;4.32;0.82;;;5.20;87.70;;;;;;5067572;28;20047;-62
2023/03/05 07:13:56;;;;;;;3.00;0.52;;;5.20;88.00;;;;;;5076479;28;20055;-62
2023/03/05 07:16:25;;;;;;;3.22;0.80;;;5.30;88.50;;;;;;5069318;28;20139;-62
2023/03/05 07:18:51;;;;;;;0.65;0.50;;;5.30;87.70;;;;;;5070232;28;20024;-62
2023/03/05 07:21:22;;;;;;;4.50;1.10;;;5.40;87.00;;;;;;5076757;28;20476;-62
2023/03/05 07:23:48;;;;;;;3.45;1.25;;;5.40;86.90;;;;;;5069396;28;20028;-62
2023/03/05 07:26:14;;;;;;;5.47;1.20;;;5.50;86.70;;;;;;5064870;28;20035;-62
2023/03/05 07:28:41;;;;;;;5.72;1.20;;;5.60;85.70;;;;;;5072794;28;20085;-61
2023/03/05 07:31:10;;;;;;;5.85;1.10;;;5.60;85.10;;;;;;5073875;28;20040;-62
2023/03/05 07:33:36;;;;;;;2.28;0.57;;;5.70;84.00;;;;;;5068459;28;20036;-62
2023/03/05 07:36:03;;;;;;;5.13;1.00;;;5.70;84.00;;;;;;5065061;28;20063;-63
2023/03/05 07:38:32;;;;;;;4.97;1.63;;;5.70;84.00;;;;;;5078934;28;20387;-62
2023/03/05 07:41:06;;;;;;;3.50;1.25;;;5.80;84.90;;;;;;5078646;28;20072;-62
2023/03/05 07:43:32;;;;;;;5.30;1.13;;;5.90;84.10;;;;;;5066314;28;20028;-61
2023/03/05 07:45:58;;;;;;;2.92;1.10;;;6.00;82.30;;;;;;5075184;28;20038;-62
2023/03/05 07:48:24;;;;;;;4.28;0.60;;;6.00;82.80;;;;;;5070019;28;20773;-63
2023/03/05 07:50:58;;;;;;;1.40;0.45;;;6.10;81.40;;;;;;5076328;28;20074;-62
2023/03/05 07:53:24;;;;;;;6.63;2.28;;;6.10;81.10;;;;;;5058859;28;20028;-62
2023/03/05 07:55:50;;;;;;;5.53;2.10;;;6.20;81.40;;;;;;5079762;28;20039;-62
2023/03/05 07:58:16;;;;;;;2.78;1.00;;;6.10;81.80;;;;;;5071501;28;20042;-63
2023/03/05 08:00:41;;;;;;;5.30;2.60;;;6.20;81.00;;;;;;5083193;28;20050;-63
2023/03/05 08:03:07;;;;;;;8.10;2.58;;;6.20;81.10;;;;;;5078176;28;20035;-63
2023/03/05 08:05:33;;;;;;;6.32;1.10;;;6.30;80.40;;;;;;5087739;28;20040;-63
2023/03/05 08:07:59;;;;;;;3.67;1.80;;;6.40;78.90;;;;;;5082565;28;20031;-63
2023/03/05 08:10:24;;;;;;;18.17;7.07;;;6.40;79.20;;;;;;5084441;28;20574;-63
2023/03/05 08:12:50;;;;;;;4.30;0.90;;;6.50;78.50;;;;;;5077503;28;20100;-63
2023/03/05 08:15:16;;;;;;;2.97;1.17;;;6.60;77.90;;;;;;5080674;28;20035;-63
2023/03/05 08:17:42;;;;;;;11.02;3.90;;;6.60;78.70;;;;;;5081753;28;20035;-63
2023/03/05 08:20:09;;;;;;;4.53;1.35;;;6.80;78.90;;;;;;5085196;28;20501;-63
2023/03/05 08:22:36;;;;;;;5.50;1.30;;;7.20;78.10;;;;;;5080136;28;20032;-63
2023/03/05 08:25:03;;;;;;;4.50;0.80;;;7.40;75.70;;;;;;5072330;28;20266;-63
2023/03/05 08:27:29;;;;;;;6.63;2.22;;;7.60;74.50;;;;;;5081833;28;20059;-63
2023/03/05 08:29:55;;;;;;;5.30;1.73;;;7.90;74.90;;;;;;5088069;28;20091;-63
2023/03/05 08:32:20;;;;;;;3.53;0.85;;;8.10;73.00;;;;;;5085000;28;20748;-66
2023/03/05 08:34:46;;;;;;;2.60;0.80;;;8.20;69.90;;;;;;5087469;28;20059;-63
2023/03/05 08:37:12;;;;;;;5.03;1.67;;;8.30;70.40;;;;;;5077680;28;20640;-63
2023/03/05 08:39:38;;;;;;;7.25;1.40;;;8.50;70.80;;;;;;5084182;28;20135;-63
2023/03/05 08:42:04;;;;;;;8.70;2.70;;;8.70;69.40;;;;;;5078041;28;20696;-63
2023/03/05 08:44:30;;;;;;;2.45;1.08;;;8.70;68.70;;;;;;5078485;28;20027;-63
2023/03/05 08:46:56;;;;;;;4.13;1.05;;;8.70;68.00;;;;;;5081827;28;20028;-63
2023/03/05 08:49:22;;;;;;;4.93;0.90;;;8.70;67.80;;;;;;5080529;28;20031;-63
2023/03/05 08:51:47;;;;;;;3.38;1.02;;;8.70;67.30;;;;;;5083274;28;20812;-63
2023/03/05 08:54:13;;;;;;;4.72;0.52;;;8.70;66.50;;;;;;5077040;28;20118;-63
2023/03/05 08:56:39;;;;;;;3.15;0.88;;;8.60;66.90;;;;;;5078964;28;20812;-62
2023/03/05 08:59:05;;;;;;;4.38;1.38;;;8.40;66.30;;;;;;5075765;28;20127;-63
2023/03/05 09:01:31;;;;;;;3.30;0.98;;;8.40;67.60;;;;;;5076884;28;20823;-62
2023/03/05 09:03:58;;;;;;;1.98;0.85;;;8.30;67.80;;;;;;5070378;28;20036;-63
2023/03/05 09:06:25;;;;;;;5.43;1.20;;;8.30;67.60;;;;;;5080691;28;20407;-63
2023/03/05 09:08:51;;;;;;;4.40;0.98;;;8.20;66.50;;;;;;5081515;28;20105;-62
2023/03/05 09:11:17;;;;;;;3.10;1.20;;;8.00;66.70;;;;;;5080560;28;20434;-63
2023/03/05 09:13:43;;;;;;;3.33;1.45;;;8.00;67.50;;;;;;5076624;28;20611;-65
2023/03/05 09:16:14;;;;;;;1.90;0.75;;;8.00;67.60;;;;;;5083984;28;20127;-65
2023/03/05 09:18:40;;;;;;;1.23;0.60;;;7.90;65.50;;;;;;5079358;28;20484;-66
2023/03/05 09:21:15;;;;;;;9.35;1.02;;;7.80;66.10;;;;;;5077445;28;20052;-66
2023/03/05 09:23:42;;;;;;;4.65;1.67;;;7.80;66.10;;;;;;5082735;28;20020;-65
2023/03/05 09:26:10;;;;;;;3.22;1.27;;;7.90;67.20;;;;;;5070290;28;20032;-66
2023/03/05 09:28:37;;;;;;;3.03;0.90;;;8.50;66.20;;;;;;5076411;28;20037;-65
2023/03/05 09:31:04;;;;;;;5.88;1.10;;;9.20;65.20;;;;;;5074350;28;20035;-66
2023/03/05 09:33:31;;;;;;;3.58;1.40;;;9.30;63.80;;;;;;5079563;28;20040;-66
2023/03/05 09:35:58;;;;;;;2.65;1.52;;;9.50;63.10;;;;;;5073306;28;20044;-66
2023/03/05 09:38:24;;;;;;;4.53;1.45;;;9.70;63.20;;;;;;5074260;28;20170;-65
2023/03/05 09:41:13;;;;;;;4.60;1.30;;;9.70;62.80;;;;;;5072685;28;20060;-66
2023/03/05 09:43:53;;;;;;;5.47;2.05;;;9.60;62.80;;;;;;5081816;28;20660;-66
2023/03/05 09:46:35;;;;;;;4.40;1.10;;;9.40;62.90;;;;;;5070025;28;20052;-65
2023/03/05 09:49:19;;;;;;;4.85;1.98;;;9.20;63.20;;;;;;5085009;28;20027;-65
2023/03/05 09:51:47;;;;;;;4.38;1.95;;;9.20;63.20;;;;;;5081738;28;20150;-65
2023/03/05 09:54:19;;;;;;;6.03;2.00;;;9.30;63.50;;;;;;5081623;28;20035;-64
2023/03/05 09:56:50;;;;;;;7.60;1.40;;;9.10;62.90;;;;;;5079151;28;20555;-65
2023/03/05 09:59:29;;;;;;;5.07;1.67;;;9.00;63.40;;;;;;5086400;28;20100;-64
2023/03/05 10:02:00;;;;;;;5.63;1.23;;;8.90;64.60;;;;;;5077113;28;20098;-65
2023/03/05 10:04:51;;;;;;;4.35;2.03;;;9.10;64.00;;;;;;5081085;28;20142;-65
2023/03/05 10:07:38;;;;;;;1.63;1.02;;;9.30;63.30;;;;;;5074826;28;20512;-67
2023/03/05 10:10:13;;;;;;;5.10;1.63;;;9.40;62.00;;;;;;5079191;28;20390;-66
2023/03/05 10:12:49;;;;;;;3.75;1.10;;;9.50;61.80;;;;;;5088100;28;20037;-66
2023/03/05 10:15:19;;;;;;;1.42;0.90;;;9.60;62.40;;;;;;5081802;28;20035;-65
2023/03/05 10:17:56;;;;;;;6.57;1.33;;;9.50;60.90;;;;;;5084139;28;20121;-66
2023/03/05 10:20:41;;;;;;;1.80;0.90;;;9.40;61.30;;;;;;5076039;28;20110;-66
2023/03/05 10:23:07;;;;;;;3.97;0.80;;;9.30;60.40;;;;;;5074444;28;20144;-66
2023/03/05 10:25:47;;;;;;;2.63;0.77;;;9.10;60.50;;;;;;5069249;28;20060;-66
2023/03/05 10:28:34;;;;;;;1.85;0.80;;;8.90;62.00;;;;;;5077364;28;20030;-66
2023/03/05 10:31:20;;;;;;;3.85;1.00;;;8.80;61.60;;;;;;5081923;28;20035;-65
2023/03/05 10:34:21;;;;;;;1.02;0.50;;;8.50;62.80;;;;;;5090131;28;20055;-65
2023/03/05 10:37:10;;;;;;;2.15;0.70;;;8.40;64.00;;;;;;5080336;28;20036;-65
2023/03/05 10:39:54;;;;;;;2.65;0.90;;;8.10;63.10;;;;;;5077305;28;20118;-65
2023/03/05 10:42:20;;;;;;;9.90;2.05;;;8.00;64.30;;;;;;5076938;28;20033;-66
2023/03/05 10:44:46;;;;;;;11.43;2.90;;;8.00;65.70;;;;;;5073449;28;20733;-67
2023/03/05 10:47:39;;;;;;;6.93;2.42;;;8.20;66.70;;;;;;5082508;28;20938;-65
2023/03/05 10:50:34;;;;;;;2.63;0.60;;;8.30;64.60;;;;;;5080593;28;20032;-66
2023/03/05 10:53:14;;;;;;;2.95;0.85;;;8.50;64.60;;;;;;5075581;28;20032;-66
2023/03/05 10:55:40;;;;;;;2.60;0.50;;;9.00;62.70;;;;;;5074436;28;20031;-66
2023/03/05 10:58:14;;;;;;;4.15;0.90;;;9.10;62.00;;;;;;5082646;28;20074;-66
2023/03/05 11:00:56;;;;;;;1.27;0.55;;;9.00;61.00;;;;;;5084215;28;20138;-65
2023/03/05 11:03:21;;;;;;;3.25;0.68;;;9.10;60.40;;;;;;5076060;28;20042;-65
2023/03/05 11:05:51;;;;;;;1.90;0.50;;;9.20;59.90;;;;;;5071789;28;20490;-66
2023/03/05 11:08:16;;;;;;;4.60;0.85;;;9.30;59.50;;;;;;5081465;28;20028;-66
2023/03/05 11:10:42;;;;;;;1.73;0.57;;;9.40;60.10;;;;;;5065477;28;20035;-66
2023/03/05 11:13:26;;;;;;;2.65;0.60;;;9.60;60.20;;;;;;5074322;28;20024;-65
2023/03/05 11:16:00;;;;;;;1.38;0.40;;;9.80;58.60;;;;;;5075239;28;20028;-65
2023/03/05 11:18:27;;;;;;;1.63;0.77;;;9.60;57.20;;;;;;5077475;28;20067;-66
2023/03/05 11:21:07;;;;;;;4.10;1.17;;;9.60;57.70;;;;;;5073371;28;20476;-65
2023/03/05 11:23:33;;;;;;;2.58;0.63;;;9.60;57.20;;;;;;5069411;28;20043;-64
2023/03/05 11:26:22;;;;;;;2.53;1.00;;;9.40;56.30;;;;;;5076147;28;20026;-64
2023/03/05 11:28:51;;;;;;;5.00;1.92;;;9.20;57.50;;;;;;5080452;28;20031;-65
2023/03/05 11:31:17;;;;;;;3.10;1.35;;;9.10;58.10;;;;;;5072295;28;20031;-64
2023/03/05 11:33:58;;;;;;;1.50;0.55;;;9.00;59.30;;;;;;5078903;28;20028;-65
2023/03/05 11:36:33;;;;;;;2.95;0.95;;;8.80;59.90;;;;;;5072860;28;20024;-64
2023/03/05 11:39:07;;;;;;;1.35;1.08;;;8.70;59.70;;;;;;5082001;28;20036;-64
2023/03/05 11:41:41;;;;;;;4.00;2.20;;;8.60;62.20;;;;;;5075885;28;20040;-64
2023/03/05 11:44:24;;;;;;;3.92;2.15;;;8.80;61.70;;;;;;5081439;28;20032;-64
2023/03/05 11:46:55;;;;;;;2.80;0.60;;;8.80;59.20;;;;;;5079130;28;20474;-63
2023/03/05 11:49:25;;;;;;;2.03;0.73;;;8.80;60.20;;;;;;5077415;28;20081;-64
2023/03/05 11:52:11;;;;;;;5.32;1.30;;;8.70;60.40;;;;;;5069183;28;20377;-64
2023/03/05 11:54:52;;;;;;;4.38;0.50;;;8.80;60.20;;;;;;5080282;28;20134;-64
2023/03/05 11:57:22;;;;;;;3.40;0.50;;;8.90;59.80;;;;;;5072607;28;20039;-64
2023/03/05 11:59:50;;;;;;;1.35;0.95;;;8.90;58.80;;;;;;5089144;28;20041;-64
2023/03/05 12:02:22;;;;;;;0.63;0.30;;;9.00;59.10;;;;;;5080909;28;20035;-64
2023/03/05 12:04:48;;;;;;;1.92;0.50;;;8.80;59.00;;;;;;5077486;28;20033;-64
2023/03/05 12:07:24;;;;;;;1.75;0.45;;;8.80;60.00;;;;;;5074083;28;20032;-64
2023/03/05 12:09:51;;;;;;;1.38;0.40;;;8.60;60.00;;;;;;5077667;28;20115;-66
2023/03/05 12:12:45;;;;;;;5.53;0.50;;;8.60;60.60;;;;;;5088558;28;20132;-64
2023/03/05 12:15:11;;;;;;;3.40;0.70;;;8.70;59.80;;;;;;5076877;28;20035;-65
2023/03/05 12:18:06;;;;;;;2.45;0.75;;;8.80;59.80;;;;;;5076076;28;20100;-64
2023/03/05 12:21:14;;;;;;;3.33;0.60;;;8.80;60.30;;;;;;5088711;28;20857;-64
2023/03/05 12:23:48;;;;;;;3.38;0.80;;;8.70;59.70;;;;;;5073925;28;20040;-64
2023/03/05 12:26:15;;;;;;;1.45;0.63;;;8.90;59.30;;;;;;5084520;28;20038;-64
2023/03/05 12:28:53;;;;;;;3.13;0.60;;;9.10;59.10;;;;;;5082504;28;20101;-65
2023/03/05 12:31:32;;;;;;;2.92;0.63;;;9.30;59.60;;;;;;5084875;28;20766;-64
2023/03/05 12:33:58;;;;;;;2.88;0.60;;;9.30;57.40;;;;;;5084644;28;20027;-64
2023/03/05 12:36:33;;;;;;;3.42;0.60;;;9.30;57.60;;;;;;5083286;28;20033;-64
2023/03/05 12:38:59;;;;;;;3.22;0.52;;;9.10;56.70;;;;;;5086658;28;20032;-64
2023/03/05 12:41:33;;;;;;;2.42;0.68;;;9.00;58.60;;;;;;5082644;28;20400;-64
2023/03/05 12:44:04;;;;;;;5.43;0.77;;;8.90;58.50;;;;;;5088914;28;20040;-64
2023/03/05 12:46:34;;;;;;;1.30;0.70;;;8.80;58.80;;;;;;5085009;28;20043;-64
2023/03/05 12:49:25;;;;;;;4.43;0.68;;;8.80;61.30;;;;;;5089060;28;20046;-64
2023/03/05 12:51:58;;;;;;;1.73;0.50;;;8.60;62.00;;;;;;5083448;28;20028;-64
2023/03/05 12:54:39;;;;;;;5.00;0.80;;;8.60;63.30;;;;;;5090685;28;20030;-64
2023/03/05 12:57:17;;;;;;;2.72;0.60;;;8.50;60.80;;;;;;5083809;28;20292;-64
2023/03/05 12:59:57;;;;;;;2.15;0.50;;;8.60;62.70;;;;;;5079146;28;20024;-63
2023/03/05 13:02:33;;;;;;;5.15;0.88;;;8.60;61.40;;;;;;5090721;28;20395;-64
2023/03/05 13:05:24;;;;;;;0.63;0.40;;;8.60;62.40;;;;;;5087483;28;20070;-63
2023/03/05 13:07:51;;;;;;;4.30;0.70;;;8.60;61.90;;;;;;5079659;28;20035;-64
2023/03/05 13:10:28;;;;;;;1.70;0.50;;;8.50;60.90;;;;;;5073764;28;20039;-63